sensor_id;sensor_type;location;lat;lon;timestamp;temperature;humidity
41694;DHT22;27377;50.666;9.150;2022-09-17T00:00:13;11.50;99.90
41694;DHT22;27377;50.666;9.150;2022-09-17T00:02:38;11.40;99.90
41694;DHT22;27377;50.666;9.150;2022-09-17T00:05:05;11.50;99.90
41694;DHT22;27377;50.666;9.150;2022-09-17T00:07:31;11.50;99.90
41694;DHT22;27377;50.666;9.150;2022-09-17T00:09:56;11.50;99.90
41694;DHT22;27377;50.666;9.150;2022-09-17T00:12:22;11.50;99.90
41694;DHT22;27377;50.666;9.150;2022-09-17T00:14:47;11.40;99.90
41694;DHT22;27377;50.666;9.150;2022-09-17T00:17:13;11.50;99.90
41694;DHT22;27377;50.666;9.150;2022-09-17T00:19:38;11.50;99.90
41694;DHT22;27377;50.666;9.150;2022-09-17T00:22:04;11.50;99.90
41694;DHT22;27377;50.666;9.150;2022-09-17T00:24:30;11.50;99.90
41694;DHT22;27377;50.666;9.150;2022-09-17T00:26:55;11.50;99.90
41694;DHT22;27377;50.666;9.150;2022-09-17T00:29:21;11.50;99.90
41694;DHT22;27377;50.666;9.150;2022-09-17T00:31:47;11.50;99.90
41694;DHT22;27377;50.666;9.150;2022-09-17T00:34:12;11.50;99.90
41694;DHT22;27377;50.666;9.150;2022-09-17T00:36:38;11.50;99.90
41694;DHT22;27377;50.666;9.150;2022-09-17T00:39:06;11.50;99.90
41694;DHT22;27377;50.666;9.150;2022-09-17T00:41:33;11.50;99.90
41694;DHT22;27377;50.666;9.150;2022-09-17T00:44:38;11.50;99.90
41694;DHT22;27377;50.666;9.150;2022-09-17T00:46:48;11.50;99.90
41694;DHT22;27377;50.666;9.150;2022-09-17T00:49:28;11.50;99.90
41694;DHT22;27377;50.666;9.150;2022-09-17T00:52:04;11.50;99.90
41694;DHT22;27377;50.666;9.150;2022-09-17T00:54:30;11.50;99.90
41694;DHT22;27377;50.666;9.150;2022-09-17T00:56:56;11.50;99.90
41694;DHT22;27377;50.666;9.150;2022-09-17T00:59:22;11.50;99.90
41694;DHT22;27377;50.666;9.150;2022-09-17T01:01:51;11.50;99.90
41694;DHT22;27377;50.666;9.150;2022-09-17T01:04:18;11.40;99.90
41694;DHT22;27377;50.666;9.150;2022-09-17T01:09:53;11.50;99.90
41694;DHT22;27377;50.666;9.150;2022-09-17T01:12:26;11.50;99.90
41694;DHT22;27377;50.666;9.150;2022-09-17T01:17:33;11.40;99.90
41694;DHT22;27377;50.666;9.150;2022-09-17T01:20:25;11.30;99.90
41694;DHT22;27377;50.666;9.150;2022-09-17T01:23:02;11.30;99.90
41694;DHT22;27377;50.666;9.150;2022-09-17T01:25:52;11.30;99.90
41694;DHT22;27377;50.666;9.150;2022-09-17T01:31:47;11.30;99.90
41694;DHT22;27377;50.666;9.150;2022-09-17T01:37:02;11.30;99.90
41694;DHT22;27377;50.666;9.150;2022-09-17T01:42:27;11.30;99.90
41694;DHT22;27377;50.666;9.150;2022-09-17T01:45:15;11.30;99.90
41694;DHT22;27377;50.666;9.150;2022-09-17T01:47:49;11.30;99.90
41694;DHT22;27377;50.666;9.150;2022-09-17T01:50:23;11.30;99.90
41694;DHT22;27377;50.666;9.150;2022-09-17T01:52:50;11.30;99.90
41694;DHT22;27377;50.666;9.150;2022-09-17T01:55:18;11.30;99.90
41694;DHT22;27377;50.666;9.150;2022-09-17T01:58:00;11.30;99.90
41694;DHT22;27377;50.666;9.150;2022-09-17T02:00:27;11.30;99.90
41694;DHT22;27377;50.666;9.150;2022-09-17T02:03:01;11.30;99.90
41694;DHT22;27377;50.666;9.150;2022-09-17T02:05:32;11.30;99.90
41694;DHT22;27377;50.666;9.150;2022-09-17T02:08:13;11.30;99.90
41694;DHT22;27377;50.666;9.150;2022-09-17T02:11:01;11.30;99.90
41694;DHT22;27377;50.666;9.150;2022-09-17T02:13:53;11.30;99.90
41694;DHT22;27377;50.666;9.150;2022-09-17T02:16:32;11.30;99.90
41694;DHT22;27377;50.666;9.150;2022-09-17T02:21:54;11.30;99.90
41694;DHT22;27377;50.666;9.150;2022-09-17T02:24:28;11.30;99.90
41694;DHT22;27377;50.666;9.150;2022-09-17T02:27:06;11.30;99.90
41694;DHT22;27377;50.666;9.150;2022-09-17T02:29:40;11.30;99.90
41694;DHT22;27377;50.666;9.150;2022-09-17T02:32:07;11.30;99.90
41694;DHT22;27377;50.666;9.150;2022-09-17T02:34:32;11.30;99.90
41694;DHT22;27377;50.666;9.150;2022-09-17T02:36:59;11.30;99.90
41694;DHT22;27377;50.666;9.150;2022-09-17T02:39:25;11.30;99.90
41694;DHT22;27377;50.666;9.150;2022-09-17T02:47:50;11.30;99.90
41694;DHT22;27377;50.666;9.150;2022-09-17T02:50:25;11.20;99.90
41694;DHT22;27377;50.666;9.150;2022-09-17T02:58:47;11.30;99.90
41694;DHT22;27377;50.666;9.150;2022-09-17T03:01:38;11.30;99.90
41694;DHT22;27377;50.666;9.150;2022-09-17T03:04:08;11.30;99.90
41694;DHT22;27377;50.666;9.150;2022-09-17T03:06:34;11.20;99.90
41694;DHT22;27377;50.666;9.150;2022-09-17T03:09:00;11.30;99.90
41694;DHT22;27377;50.666;9.150;2022-09-17T03:11:26;11.30;99.90
41694;DHT22;27377;50.666;9.150;2022-09-17T03:13:51;11.20;99.90
41694;DHT22;27377;50.666;9.150;2022-09-17T03:16:17;11.20;99.90
41694;DHT22;27377;50.666;9.150;2022-09-17T03:18:42;11.20;99.90
41694;DHT22;27377;50.666;9.150;2022-09-17T03:21:08;11.20;99.90
41694;DHT22;27377;50.666;9.150;2022-09-17T03:23:33;11.20;99.90
41694;DHT22;27377;50.666;9.150;2022-09-17T03:25:59;11.20;99.90
41694;DHT22;27377;50.666;9.150;2022-09-17T03:28:25;11.20;99.90
41694;DHT22;27377;50.666;9.150;2022-09-17T03:30:51;11.20;99.90
41694;DHT22;27377;50.666;9.150;2022-09-17T03:33:17;11.20;99.90
41694;DHT22;27377;50.666;9.150;2022-09-17T03:35:44;11.20;99.90
41694;DHT22;27377;50.666;9.150;2022-09-17T03:38:10;11.20;99.90
41694;DHT22;27377;50.666;9.150;2022-09-17T03:40:36;11.20;99.90
41694;DHT22;27377;50.666;9.150;2022-09-17T03:43:02;11.20;99.90
41694;DHT22;27377;50.666;9.150;2022-09-17T03:45:27;11.20;99.90
41694;DHT22;27377;50.666;9.150;2022-09-17T03:47:53;11.20;99.90
41694;DHT22;27377;50.666;9.150;2022-09-17T03:50:20;11.10;99.90
41694;DHT22;27377;50.666;9.150;2022-09-17T03:52:45;11.10;99.90
41694;DHT22;27377;50.666;9.150;2022-09-17T03:55:11;11.10;99.90
41694;DHT22;27377;50.666;9.150;2022-09-17T03:57:36;11.10;99.90
41694;DHT22;27377;50.666;9.150;2022-09-17T04:00:03;11.10;99.90
41694;DHT22;27377;50.666;9.150;2022-09-17T04:02:28;11.10;99.90
41694;DHT22;27377;50.666;9.150;2022-09-17T04:04:54;11.10;99.90
41694;DHT22;27377;50.666;9.150;2022-09-17T04:07:20;11.00;99.90
41694;DHT22;27377;50.666;9.150;2022-09-17T04:09:45;11.10;99.90
41694;DHT22;27377;50.666;9.150;2022-09-17T04:12:11;11.00;99.90
41694;DHT22;27377;50.666;9.150;2022-09-17T04:14:36;10.90;99.90
41694;DHT22;27377;50.666;9.150;2022-09-17T04:17:02;10.90;99.90
41694;DHT22;27377;50.666;9.150;2022-09-17T04:19:27;10.90;99.90
41694;DHT22;27377;50.666;9.150;2022-09-17T04:21:53;10.90;99.90
41694;DHT22;27377;50.666;9.150;2022-09-17T04:24:18;10.90;99.90
41694;DHT22;27377;50.666;9.150;2022-09-17T04:26:44;10.90;99.90
41694;DHT22;27377;50.666;9.150;2022-09-17T04:29:09;11.00;99.90
41694;DHT22;27377;50.666;9.150;2022-09-17T04:31:35;10.90;99.90
41694;DHT22;27377;50.666;9.150;2022-09-17T04:34:01;11.00;99.90
41694;DHT22;27377;50.666;9.150;2022-09-17T04:36:26;11.00;99.90
41694;DHT22;27377;50.666;9.150;2022-09-17T04:38:52;11.00;99.90
41694;DHT22;27377;50.666;9.150;2022-09-17T04:41:18;11.00;99.90
41694;DHT22;27377;50.666;9.150;2022-09-17T04:43:44;11.00;99.90
41694;DHT22;27377;50.666;9.150;2022-09-17T04:46:09;11.00;99.90
41694;DHT22;27377;50.666;9.150;2022-09-17T04:48:36;11.00;99.90
41694;DHT22;27377;50.666;9.150;2022-09-17T04:51:01;11.00;99.90
41694;DHT22;27377;50.666;9.150;2022-09-17T04:53:27;11.00;99.90
41694;DHT22;27377;50.666;9.150;2022-09-17T04:55:53;10.90;99.90
41694;DHT22;27377;50.666;9.150;2022-09-17T04:58:18;10.90;99.90
41694;DHT22;27377;50.666;9.150;2022-09-17T05:00:44;10.90;99.90
41694;DHT22;27377;50.666;9.150;2022-09-17T05:03:09;10.80;99.90
41694;DHT22;27377;50.666;9.150;2022-09-17T05:05:35;10.90;99.90
41694;DHT22;27377;50.666;9.150;2022-09-17T05:08:04;10.90;99.90
41694;DHT22;27377;50.666;9.150;2022-09-17T05:10:30;10.80;99.90
41694;DHT22;27377;50.666;9.150;2022-09-17T05:12:56;10.80;99.90
41694;DHT22;27377;50.666;9.150;2022-09-17T05:15:23;10.70;99.90
41694;DHT22;27377;50.666;9.150;2022-09-17T05:17:49;10.70;99.90
41694;DHT22;27377;50.666;9.150;2022-09-17T05:20:19;10.70;99.90
41694;DHT22;27377;50.666;9.150;2022-09-17T05:22:47;10.70;99.90
41694;DHT22;27377;50.666;9.150;2022-09-17T05:25:14;10.70;99.90
41694;DHT22;27377;50.666;9.150;2022-09-17T05:27:41;10.60;99.90
41694;DHT22;27377;50.666;9.150;2022-09-17T05:30:07;10.60;99.90
41694;DHT22;27377;50.666;9.150;2022-09-17T05:32:34;10.60;99.90
41694;DHT22;27377;50.666;9.150;2022-09-17T05:35:01;10.60;99.90
41694;DHT22;27377;50.666;9.150;2022-09-17T05:37:27;10.60;99.90
41694;DHT22;27377;50.666;9.150;2022-09-17T05:39:52;10.60;99.90
41694;DHT22;27377;50.666;9.150;2022-09-17T05:42:18;10.50;99.90
41694;DHT22;27377;50.666;9.150;2022-09-17T05:44:44;10.50;99.90
41694;DHT22;27377;50.666;9.150;2022-09-17T05:47:09;10.50;99.90
41694;DHT22;27377;50.666;9.150;2022-09-17T05:49:35;10.50;99.90
41694;DHT22;27377;50.666;9.150;2022-09-17T05:52:00;10.40;99.90
41694;DHT22;27377;50.666;9.150;2022-09-17T05:54:28;10.30;99.90
41694;DHT22;27377;50.666;9.150;2022-09-17T05:56:53;10.20;99.90
41694;DHT22;27377;50.666;9.150;2022-09-17T05:59:19;10.10;99.90
41694;DHT22;27377;50.666;9.150;2022-09-17T06:01:44;10.10;99.90
41694;DHT22;27377;50.666;9.150;2022-09-17T06:04:10;10.10;99.90
41694;DHT22;27377;50.666;9.150;2022-09-17T06:06:36;10.10;99.90
41694;DHT22;27377;50.666;9.150;2022-09-17T06:09:06;10.20;99.90
41694;DHT22;27377;50.666;9.150;2022-09-17T06:11:32;10.20;99.90
41694;DHT22;27377;50.666;9.150;2022-09-17T06:13:57;10.20;99.90
41694;DHT22;27377;50.666;9.150;2022-09-17T06:16:26;10.30;99.90
41694;DHT22;27377;50.666;9.150;2022-09-17T06:18:52;10.30;99.90
41694;DHT22;27377;50.666;9.150;2022-09-17T06:21:21;10.30;99.90
41694;DHT22;27377;50.666;9.150;2022-09-17T06:23:51;10.30;99.90
41694;DHT22;27377;50.666;9.150;2022-09-17T06:26:17;10.40;99.90
41694;DHT22;27377;50.666;9.150;2022-09-17T06:28:43;10.30;99.90
41694;DHT22;27377;50.666;9.150;2022-09-17T06:31:10;10.40;99.90
41694;DHT22;27377;50.666;9.150;2022-09-17T06:33:36;10.40;99.90
41694;DHT22;27377;50.666;9.150;2022-09-17T06:36:07;10.50;99.90
41694;DHT22;27377;50.666;9.150;2022-09-17T06:38:35;10.50;99.90
41694;DHT22;27377;50.666;9.150;2022-09-17T06:41:04;10.50;99.90
41694;DHT22;27377;50.666;9.150;2022-09-17T06:43:30;10.50;99.90
41694;DHT22;27377;50.666;9.150;2022-09-17T06:46:01;10.50;99.90
41694;DHT22;27377;50.666;9.150;2022-09-17T06:48:28;10.60;99.90
41694;DHT22;27377;50.666;9.150;2022-09-17T06:50:59;10.60;99.90
41694;DHT22;27377;50.666;9.150;2022-09-17T06:53:26;10.60;99.90
41694;DHT22;27377;50.666;9.150;2022-09-17T06:55:51;10.60;99.90
41694;DHT22;27377;50.666;9.150;2022-09-17T06:58:20;10.70;99.90
41694;DHT22;27377;50.666;9.150;2022-09-17T07:00:46;10.60;99.90
41694;DHT22;27377;50.666;9.150;2022-09-17T07:03:12;10.70;99.90
41694;DHT22;27377;50.666;9.150;2022-09-17T07:05:38;10.70;99.90
41694;DHT22;27377;50.666;9.150;2022-09-17T07:08:03;10.80;99.90
41694;DHT22;27377;50.666;9.150;2022-09-17T07:10:30;10.80;99.90
41694;DHT22;27377;50.666;9.150;2022-09-17T07:12:56;10.80;99.90
41694;DHT22;27377;50.666;9.150;2022-09-17T07:15:23;10.90;99.90
41694;DHT22;27377;50.666;9.150;2022-09-17T07:17:52;10.90;99.90
41694;DHT22;27377;50.666;9.150;2022-09-17T07:20:18;11.00;99.90
41694;DHT22;27377;50.666;9.150;2022-09-17T07:22:44;11.00;99.90
41694;DHT22;27377;50.666;9.150;2022-09-17T07:25:10;11.00;99.90
41694;DHT22;27377;50.666;9.150;2022-09-17T07:27:36;11.00;99.90
41694;DHT22;27377;50.666;9.150;2022-09-17T07:30:03;11.10;99.90
41694;DHT22;27377;50.666;9.150;2022-09-17T07:32:30;11.10;99.90
41694;DHT22;27377;50.666;9.150;2022-09-17T07:34:56;11.20;99.90
41694;DHT22;27377;50.666;9.150;2022-09-17T07:37:21;11.20;99.90
41694;DHT22;27377;50.666;9.150;2022-09-17T07:39:47;11.20;99.90
41694;DHT22;27377;50.666;9.150;2022-09-17T07:42:12;11.20;99.90
41694;DHT22;27377;50.666;9.150;2022-09-17T07:44:38;11.20;99.90
41694;DHT22;27377;50.666;9.150;2022-09-17T07:47:04;11.30;99.90
41694;DHT22;27377;50.666;9.150;2022-09-17T07:49:30;11.30;99.90
41694;DHT22;27377;50.666;9.150;2022-09-17T07:51:56;11.30;99.90
41694;DHT22;27377;50.666;9.150;2022-09-17T07:54:22;11.30;99.90
41694;DHT22;27377;50.666;9.150;2022-09-17T07:56:48;11.40;99.90
41694;DHT22;27377;50.666;9.150;2022-09-17T07:59:13;11.40;99.90
41694;DHT22;27377;50.666;9.150;2022-09-17T08:01:39;11.40;99.90
41694;DHT22;27377;50.666;9.150;2022-09-17T08:04:05;11.40;99.90
41694;DHT22;27377;50.666;9.150;2022-09-17T08:06:34;11.50;99.90
41694;DHT22;27377;50.666;9.150;2022-09-17T08:09:00;11.50;99.90
41694;DHT22;27377;50.666;9.150;2022-09-17T08:11:27;11.50;99.90
41694;DHT22;27377;50.666;9.150;2022-09-17T08:13:53;11.50;99.90
41694;DHT22;27377;50.666;9.150;2022-09-17T08:16:20;11.60;99.90
41694;DHT22;27377;50.666;9.150;2022-09-17T08:18:47;11.60;99.90
41694;DHT22;27377;50.666;9.150;2022-09-17T08:21:15;11.60;99.90
41694;DHT22;27377;50.666;9.150;2022-09-17T08:23:42;11.60;99.90
41694;DHT22;27377;50.666;9.150;2022-09-17T08:26:16;11.60;99.90
41694;DHT22;27377;50.666;9.150;2022-09-17T08:28:47;11.60;99.90
41694;DHT22;27377;50.666;9.150;2022-09-17T08:31:14;11.60;99.90
41694;DHT22;27377;50.666;9.150;2022-09-17T08:33:40;11.60;99.90
41694;DHT22;27377;50.666;9.150;2022-09-17T08:36:08;11.70;99.90
41694;DHT22;27377;50.666;9.150;2022-09-17T08:38:35;11.70;99.90
41694;DHT22;27377;50.666;9.150;2022-09-17T08:41:25;11.60;99.90
41694;DHT22;27377;50.666;9.150;2022-09-17T08:44:18;11.70;99.90
41694;DHT22;27377;50.666;9.150;2022-09-17T08:46:51;11.70;99.90
41694;DHT22;27377;50.666;9.150;2022-09-17T08:49:53;11.70;99.90
41694;DHT22;27377;50.666;9.150;2022-09-17T08:55:45;11.70;99.90
41694;DHT22;27377;50.666;9.150;2022-09-17T09:01:17;11.70;99.90
41694;DHT22;27377;50.666;9.150;2022-09-17T09:06:52;11.80;99.90
41694;DHT22;27377;50.666;9.150;2022-09-17T09:09:22;11.80;99.90
41694;DHT22;27377;50.666;9.150;2022-09-17T09:12:02;11.90;99.90
41694;DHT22;27377;50.666;9.150;2022-09-17T09:14:47;11.90;99.90
41694;DHT22;27377;50.666;9.150;2022-09-17T09:17:16;12.00;99.90
41694;DHT22;27377;50.666;9.150;2022-09-17T09:19:44;11.90;99.90
41694;DHT22;27377;50.666;9.150;2022-09-17T09:24:49;11.90;99.90
41694;DHT22;27377;50.666;9.150;2022-09-17T09:27:23;11.90;99.90
41694;DHT22;27377;50.666;9.150;2022-09-17T09:30:10;11.90;99.90
41694;DHT22;27377;50.666;9.150;2022-09-17T09:33:04;11.90;99.90
41694;DHT22;27377;50.666;9.150;2022-09-17T09:35:35;11.90;99.90
41694;DHT22;27377;50.666;9.150;2022-09-17T09:43:43;11.90;99.90
41694;DHT22;27377;50.666;9.150;2022-09-17T09:46:29;11.90;99.90
41694;DHT22;27377;50.666;9.150;2022-09-17T09:52:32;11.90;99.90
41694;DHT22;27377;50.666;9.150;2022-09-17T09:57:42;12.00;99.90
41694;DHT22;27377;50.666;9.150;2022-09-17T10:00:28;12.00;99.90
41694;DHT22;27377;50.666;9.150;2022-09-17T10:03:21;12.00;99.90
41694;DHT22;27377;50.666;9.150;2022-09-17T10:05:56;12.00;99.90
41694;DHT22;27377;50.666;9.150;2022-09-17T10:08:23;12.00;99.90
41694;DHT22;27377;50.666;9.150;2022-09-17T10:10:59;12.00;99.90
41694;DHT22;27377;50.666;9.150;2022-09-17T10:13:27;12.00;99.90
41694;DHT22;27377;50.666;9.150;2022-09-17T10:15:53;12.00;99.90
41694;DHT22;27377;50.666;9.150;2022-09-17T10:18:23;12.00;99.90
41694;DHT22;27377;50.666;9.150;2022-09-17T10:20:59;12.00;99.90
41694;DHT22;27377;50.666;9.150;2022-09-17T10:23:29;12.00;99.90
41694;DHT22;27377;50.666;9.150;2022-09-17T10:25:58;12.10;99.90
41694;DHT22;27377;50.666;9.150;2022-09-17T10:31:01;12.20;99.90
41694;DHT22;27377;50.666;9.150;2022-09-17T10:33:30;12.20;99.90
41694;DHT22;27377;50.666;9.150;2022-09-17T10:36:03;12.20;99.90
41694;DHT22;27377;50.666;9.150;2022-09-17T10:38:31;12.20;99.90
41694;DHT22;27377;50.666;9.150;2022-09-17T10:43:37;12.40;99.90
41694;DHT22;27377;50.666;9.150;2022-09-17T10:46:03;12.40;99.90
41694;DHT22;27377;50.666;9.150;2022-09-17T10:48:36;12.40;99.90
41694;DHT22;27377;50.666;9.150;2022-09-17T10:51:02;12.50;99.90
41694;DHT22;27377;50.666;9.150;2022-09-17T10:53:31;12.50;99.90
41694;DHT22;27377;50.666;9.150;2022-09-17T10:56:14;12.50;99.90
41694;DHT22;27377;50.666;9.150;2022-09-17T10:58:49;12.60;99.50
41694;DHT22;27377;50.666;9.150;2022-09-17T11:06:21;12.60;99.90
41694;DHT22;27377;50.666;9.150;2022-09-17T11:12:13;12.70;99.90
41694;DHT22;27377;50.666;9.150;2022-09-17T11:20:30;12.80;99.60
41694;DHT22;27377;50.666;9.150;2022-09-17T11:23:21;12.80;99.70
41694;DHT22;27377;50.666;9.150;2022-09-17T11:26:00;12.80;99.40
41694;DHT22;27377;50.666;9.150;2022-09-17T11:31:08;12.90;99.20
41694;DHT22;27377;50.666;9.150;2022-09-17T11:33:50;12.90;98.60
41694;DHT22;27377;50.666;9.150;2022-09-17T11:36:25;12.90;98.60
41694;DHT22;27377;50.666;9.150;2022-09-17T11:38:56;12.90;98.60
41694;DHT22;27377;50.666;9.150;2022-09-17T11:41:37;13.00;99.00
41694;DHT22;27377;50.666;9.150;2022-09-17T11:44:12;12.90;99.50
41694;DHT22;27377;50.666;9.150;2022-09-17T11:46:51;13.00;98.80
41694;DHT22;27377;50.666;9.150;2022-09-17T11:49:32;13.00;97.30
41694;DHT22;27377;50.666;9.150;2022-09-17T11:52:02;13.00;97.30
41694;DHT22;27377;50.666;9.150;2022-09-17T11:54:46;12.90;97.30
41694;DHT22;27377;50.666;9.150;2022-09-17T11:57:20;12.90;97.80
41694;DHT22;27377;50.666;9.150;2022-09-17T12:00:13;12.90;97.60
41694;DHT22;27377;50.666;9.150;2022-09-17T12:03:01;12.70;98.60
41694;DHT22;27377;50.666;9.150;2022-09-17T12:05:38;12.60;99.40
41694;DHT22;27377;50.666;9.150;2022-09-17T12:08:33;12.50;98.60
41694;DHT22;27377;50.666;9.150;2022-09-17T12:11:10;12.50;99.30
41694;DHT22;27377;50.666;9.150;2022-09-17T12:13:47;12.50;99.90
41694;DHT22;27377;50.666;9.150;2022-09-17T12:16:39;12.50;99.90
41694;DHT22;27377;50.666;9.150;2022-09-17T12:19:40;12.50;99.90
41694;DHT22;27377;50.666;9.150;2022-09-17T12:22:18;12.60;99.90
41694;DHT22;27377;50.666;9.150;2022-09-17T12:24:46;12.70;99.90
41694;DHT22;27377;50.666;9.150;2022-09-17T12:30:03;12.70;99.90
41694;DHT22;27377;50.666;9.150;2022-09-17T12:38:20;12.90;99.90
41694;DHT22;27377;50.666;9.150;2022-09-17T12:50:02;12.90;99.70
41694;DHT22;27377;50.666;9.150;2022-09-17T12:58:49;12.90;97.90
41694;DHT22;27377;50.666;9.150;2022-09-17T13:01:54;12.90;98.40
41694;DHT22;27377;50.666;9.150;2022-09-17T13:16:13;13.20;97.80
41694;DHT22;27377;50.666;9.150;2022-09-17T13:18:57;13.30;97.70
41694;DHT22;27377;50.666;9.150;2022-09-17T13:23:57;13.30;96.60
41694;DHT22;27377;50.666;9.150;2022-09-17T13:26:34;13.30;97.10
41694;DHT22;27377;50.666;9.150;2022-09-17T13:29:00;13.40;97.80
41694;DHT22;27377;50.666;9.150;2022-09-17T13:34:27;13.40;97.30
41694;DHT22;27377;50.666;9.150;2022-09-17T13:36:59;13.40;97.20
41694;DHT22;27377;50.666;9.150;2022-09-17T13:39:47;13.40;97.00
41694;DHT22;27377;50.666;9.150;2022-09-17T13:42:20;13.40;96.80
41694;DHT22;27377;50.666;9.150;2022-09-17T13:47:25;13.30;96.10
41694;DHT22;27377;50.666;9.150;2022-09-17T13:49:56;13.20;97.30
41694;DHT22;27377;50.666;9.150;2022-09-17T13:55:03;13.20;97.70
41694;DHT22;27377;50.666;9.150;2022-09-17T13:57:30;13.10;98.30
41694;DHT22;27377;50.666;9.150;2022-09-17T13:59:59;13.00;99.20
41694;DHT22;27377;50.666;9.150;2022-09-17T14:02:32;12.90;99.90
41694;DHT22;27377;50.666;9.150;2022-09-17T14:07:46;12.80;99.90
41694;DHT22;27377;50.666;9.150;2022-09-17T14:12:49;12.80;99.90
41694;DHT22;27377;50.666;9.150;2022-09-17T14:21:04;12.80;99.90
41694;DHT22;27377;50.666;9.150;2022-09-17T14:23:32;12.90;99.90
41694;DHT22;27377;50.666;9.150;2022-09-17T14:25:58;12.90;99.90
41694;DHT22;27377;50.666;9.150;2022-09-17T14:28:32;12.90;99.90
41694;DHT22;27377;50.666;9.150;2022-09-17T14:31:01;12.90;99.50
41694;DHT22;27377;50.666;9.150;2022-09-17T14:33:33;13.00;98.40
41694;DHT22;27377;50.666;9.150;2022-09-17T14:36:07;13.00;98.90
41694;DHT22;27377;50.666;9.150;2022-09-17T14:38:37;13.00;99.50
41694;DHT22;27377;50.666;9.150;2022-09-17T14:43:51;13.00;97.10
41694;DHT22;27377;50.666;9.150;2022-09-17T14:46:28;12.90;97.70
41694;DHT22;27377;50.666;9.150;2022-09-17T14:48:54;12.90;98.70
41694;DHT22;27377;50.666;9.150;2022-09-17T14:51:25;12.90;99.00
41694;DHT22;27377;50.666;9.150;2022-09-17T14:56:34;12.90;98.90
41694;DHT22;27377;50.666;9.150;2022-09-17T14:59:00;13.00;98.80
41694;DHT22;27377;50.666;9.150;2022-09-17T15:01:29;12.90;99.00
41694;DHT22;27377;50.666;9.150;2022-09-17T15:06:40;13.00;99.40
41694;DHT22;27377;50.666;9.150;2022-09-17T15:09:14;13.00;99.60
41694;DHT22;27377;50.666;9.150;2022-09-17T15:11:40;13.00;99.50
41694;DHT22;27377;50.666;9.150;2022-09-17T15:14:15;13.00;99.90
41694;DHT22;27377;50.666;9.150;2022-09-17T15:16:53;13.00;99.90
41694;DHT22;27377;50.666;9.150;2022-09-17T15:19:24;13.00;99.90
41694;DHT22;27377;50.666;9.150;2022-09-17T15:21:54;13.10;99.70
41694;DHT22;27377;50.666;9.150;2022-09-17T15:24:47;13.10;99.90
41694;DHT22;27377;50.666;9.150;2022-09-17T15:29:48;13.10;99.70
41694;DHT22;27377;50.666;9.150;2022-09-17T15:32:15;13.20;99.00
41694;DHT22;27377;50.666;9.150;2022-09-17T15:34:41;13.20;98.90
41694;DHT22;27377;50.666;9.150;2022-09-17T15:37:18;13.20;98.90
41694;DHT22;27377;50.666;9.150;2022-09-17T15:39:49;13.20;98.80
41694;DHT22;27377;50.666;9.150;2022-09-17T15:44:49;13.20;98.60
41694;DHT22;27377;50.666;9.150;2022-09-17T15:50:23;13.10;98.70
41694;DHT22;27377;50.666;9.150;2022-09-17T15:52:56;13.10;98.30
41694;DHT22;27377;50.666;9.150;2022-09-17T15:55:31;13.10;97.80
41694;DHT22;27377;50.666;9.150;2022-09-17T15:57:59;13.00;98.60
41694;DHT22;27377;50.666;9.150;2022-09-17T16:00:25;13.00;98.90
41694;DHT22;27377;50.666;9.150;2022-09-17T16:02:51;12.90;99.70
41694;DHT22;27377;50.666;9.150;2022-09-17T16:07:45;12.90;99.90
41694;DHT22;27377;50.666;9.150;2022-09-17T16:10:12;12.90;99.90
41694;DHT22;27377;50.666;9.150;2022-09-17T16:12:38;12.90;99.90
41694;DHT22;27377;50.666;9.150;2022-09-17T16:15:05;12.80;99.90
41694;DHT22;27377;50.666;9.150;2022-09-17T16:17:46;12.80;99.90
41694;DHT22;27377;50.666;9.150;2022-09-17T16:20:20;12.80;99.90
41694;DHT22;27377;50.666;9.150;2022-09-17T16:22:48;12.90;99.90
41694;DHT22;27377;50.666;9.150;2022-09-17T16:25:15;12.90;99.90
41694;DHT22;27377;50.666;9.150;2022-09-17T16:27:56;12.90;99.90
41694;DHT22;27377;50.666;9.150;2022-09-17T16:30:23;12.90;99.90
41694;DHT22;27377;50.666;9.150;2022-09-17T16:32:49;12.90;99.90
41694;DHT22;27377;50.666;9.150;2022-09-17T16:35:20;12.80;99.90
41694;DHT22;27377;50.666;9.150;2022-09-17T16:37:50;12.70;99.90
41694;DHT22;27377;50.666;9.150;2022-09-17T16:40:16;12.70;99.50
41694;DHT22;27377;50.666;9.150;2022-09-17T16:42:43;12.60;99.40
41694;DHT22;27377;50.666;9.150;2022-09-17T16:45:09;12.60;99.30
41694;DHT22;27377;50.666;9.150;2022-09-17T16:47:35;12.60;99.10
41694;DHT22;27377;50.666;9.150;2022-09-17T16:50:04;12.50;99.10
41694;DHT22;27377;50.666;9.150;2022-09-17T16:52:29;12.50;99.00
41694;DHT22;27377;50.666;9.150;2022-09-17T16:54:55;12.50;98.70
41694;DHT22;27377;50.666;9.150;2022-09-17T16:57:20;12.40;98.70
41694;DHT22;27377;50.666;9.150;2022-09-17T16:59:46;12.40;99.00
41694;DHT22;27377;50.666;9.150;2022-09-17T17:02:11;12.30;98.90
41694;DHT22;27377;50.666;9.150;2022-09-17T17:04:37;12.30;99.10
41694;DHT22;27377;50.666;9.150;2022-09-17T17:07:03;12.30;99.10
41694;DHT22;27377;50.666;9.150;2022-09-17T17:09:28;12.20;99.10
41694;DHT22;27377;50.666;9.150;2022-09-17T17:11:54;12.20;99.20
41694;DHT22;27377;50.666;9.150;2022-09-17T17:14:20;12.20;99.30
41694;DHT22;27377;50.666;9.150;2022-09-17T17:16:45;12.20;99.30
41694;DHT22;27377;50.666;9.150;2022-09-17T17:19:11;12.10;99.10
41694;DHT22;27377;50.666;9.150;2022-09-17T17:21:36;12.10;99.60
41694;DHT22;27377;50.666;9.150;2022-09-17T17:24:03;12.00;99.60
41694;DHT22;27377;50.666;9.150;2022-09-17T17:26:29;12.10;99.60
41694;DHT22;27377;50.666;9.150;2022-09-17T17:28:54;12.00;99.70
41694;DHT22;27377;50.666;9.150;2022-09-17T17:31:20;12.00;99.70
41694;DHT22;27377;50.666;9.150;2022-09-17T17:33:45;12.00;99.60
41694;DHT22;27377;50.666;9.150;2022-09-17T17:36:11;12.00;99.80
41694;DHT22;27377;50.666;9.150;2022-09-17T17:38:37;11.90;99.60
41694;DHT22;27377;50.666;9.150;2022-09-17T17:41:06;11.90;99.60
41694;DHT22;27377;50.666;9.150;2022-09-17T17:43:33;11.90;99.70
41694;DHT22;27377;50.666;9.150;2022-09-17T17:45:58;11.90;99.70
41694;DHT22;27377;50.666;9.150;2022-09-17T17:48:24;11.80;99.70
41694;DHT22;27377;50.666;9.150;2022-09-17T17:50:50;11.80;99.70
41694;DHT22;27377;50.666;9.150;2022-09-17T17:53:15;11.80;99.90
41694;DHT22;27377;50.666;9.150;2022-09-17T17:55:41;11.80;99.80
41694;DHT22;27377;50.666;9.150;2022-09-17T17:58:06;11.80;99.90
41694;DHT22;27377;50.666;9.150;2022-09-17T18:00:32;11.70;99.90
41694;DHT22;27377;50.666;9.150;2022-09-17T18:02:57;11.70;99.90
41694;DHT22;27377;50.666;9.150;2022-09-17T18:05:23;11.60;99.90
41694;DHT22;27377;50.666;9.150;2022-09-17T18:07:48;11.60;99.90
41694;DHT22;27377;50.666;9.150;2022-09-17T18:10:14;11.50;99.90
41694;DHT22;27377;50.666;9.150;2022-09-17T18:12:40;11.50;99.90
41694;DHT22;27377;50.666;9.150;2022-09-17T18:15:06;11.40;99.90
41694;DHT22;27377;50.666;9.150;2022-09-17T18:17:32;11.50;99.90